createdAt,value
2022-10-11T00:00:15.210Z,2.97
2022-10-11T00:02:42.396Z,3.70
2022-10-11T00:05:10.143Z,2.88
2022-10-11T00:07:38.534Z,1.95
2022-10-11T00:10:08.093Z,2.20
2022-10-11T00:12:36.472Z,2.83
2022-10-11T00:15:06.374Z,4.40
2022-10-11T00:17:33.732Z,2.47
2022-10-11T00:20:01.017Z,3.35
2022-10-11T00:22:28.162Z,2.03
2022-10-11T00:24:55.354Z,2.58
2022-10-11T00:27:22.471Z,2.45
2022-10-11T00:29:49.650Z,1.63
2022-10-11T00:32:17.164Z,2.13
2022-10-11T00:34:44.352Z,1.88
2022-10-11T00:37:11.614Z,3.70
2022-10-11T00:39:38.962Z,1.75
2022-10-11T00:42:16.599Z,2.50
2022-10-11T00:44:47.872Z,2.85
2022-10-11T00:47:24.605Z,3.20
2022-10-11T00:50:00.216Z,2.78
2022-10-11T00:52:43.290Z,2.78
2022-10-11T00:55:18.154Z,3.03
2022-10-11T00:57:49.970Z,2.92
2022-10-11T01:00:17.371Z,2.83
2022-10-11T01:02:44.518Z,2.42
2022-10-11T01:05:29.700Z,2.60
2022-10-11T01:08:00.128Z,2.20
2022-10-11T01:10:28.545Z,1.67
2022-10-11T01:13:23.647Z,2.33
2022-10-11T01:16:02.324Z,1.77
2022-10-11T01:19:17.862Z,1.95
2022-10-11T01:22:00.598Z,1.45
2022-10-11T01:24:42.308Z,2.17
2022-10-11T01:27:33.871Z,2.10
2022-10-11T01:30:21.724Z,2.42
2022-10-11T01:33:14.278Z,3.20
2022-10-11T01:35:53.495Z,2.13
2022-10-11T01:38:52.192Z,2.53
2022-10-11T01:41:26.040Z,2.40
2022-10-11T01:43:59.319Z,3.78
2022-10-11T01:46:29.278Z,2.10
2022-10-11T01:49:00.754Z,2.92
2022-10-11T01:51:47.351Z,5.30
2022-10-11T01:55:08.189Z,11.40
2022-10-11T01:58:09.090Z,6.47
2022-10-11T02:00:55.735Z,5.40
2022-10-11T02:03:39.879Z,2.50
2022-10-11T02:06:58.979Z,2.47
2022-10-11T02:10:07.129Z,2.00
2022-10-11T02:13:05.623Z,3.15
2022-10-11T02:15:35.549Z,5.85
2022-10-11T02:18:10.163Z,2.97
2022-10-11T02:20:40.503Z,4.35
2022-10-11T02:23:35.248Z,2.05
2022-10-11T02:26:06.775Z,3.80
2022-10-11T02:28:38.289Z,2.47
2022-10-11T02:31:09.032Z,2.83
2022-10-11T02:34:32.900Z,2.83
2022-10-11T02:37:19.534Z,2.22
2022-10-11T02:40:07.352Z,2.95
2022-10-11T02:42:43.426Z,4.30
2022-10-11T02:45:20.515Z,8.45
2022-10-11T02:47:49.046Z,1.92
2022-10-11T02:50:16.304Z,1.80
2022-10-11T02:52:43.503Z,1.58
2022-10-11T02:55:12.007Z,1.73
2022-10-11T02:57:39.105Z,7.38
2022-10-11T03:00:07.400Z,4.97
2022-10-11T03:02:34.509Z,4.10
2022-10-11T03:05:01.911Z,2.67
2022-10-11T03:07:28.959Z,2.72
2022-10-11T03:09:56.084Z,3.53
2022-10-11T03:12:23.181Z,3.53
2022-10-11T03:14:50.289Z,2.28
2022-10-11T03:17:35.699Z,2.65
2022-10-11T03:20:08.625Z,2.13
2022-10-11T03:22:35.960Z,2.63
2022-10-11T03:25:04.596Z,2.60
2022-10-11T03:27:33.606Z,4.57
2022-10-11T03:30:01.171Z,2.38
2022-10-11T03:32:29.017Z,1.73
2022-10-11T03:34:56.621Z,3.03
2022-10-11T03:37:23.981Z,2.30
2022-10-11T03:39:51.246Z,1.92
2022-10-11T03:42:18.422Z,2.30
2022-10-11T03:44:45.613Z,2.35
2022-10-11T03:47:13.010Z,3.35
2022-10-11T03:49:43.574Z,2.03
2022-10-11T03:52:11.549Z,3.20
2022-10-11T03:54:38.703Z,1.75
2022-10-11T03:57:05.950Z,2.75
2022-10-11T03:59:33.091Z,2.33
2022-10-11T04:02:00.413Z,2.17
2022-10-11T04:04:27.708Z,2.47
2022-10-11T04:06:54.754Z,2.97
2022-10-11T04:09:22.170Z,2.30
2022-10-11T04:11:49.258Z,2.55
2022-10-11T04:14:17.098Z,2.15
2022-10-11T04:16:44.221Z,3.47
2022-10-11T04:19:11.543Z,2.33
2022-10-11T04:21:38.653Z,3.28
2022-10-11T04:24:06.152Z,3.17
2022-10-11T04:26:33.248Z,3.00
2022-10-11T04:29:00.503Z,2.38
2022-10-11T04:31:28.030Z,2.40
2022-10-11T04:33:55.179Z,3.25
2022-10-11T04:36:22.270Z,3.22
2022-10-11T04:38:52.873Z,3.83
2022-10-11T04:41:19.947Z,3.78
2022-10-11T04:43:47.301Z,3.35
2022-10-11T04:46:14.382Z,2.35
2022-10-11T04:48:41.659Z,2.13
2022-10-11T04:51:08.811Z,3.42
2022-10-11T04:53:36.062Z,2.50
2022-10-11T04:56:11.159Z,2.80
2022-10-11T04:58:42.919Z,3.63
2022-10-11T05:01:11.164Z,2.45
2022-10-11T05:03:38.541Z,4.10
2022-10-11T05:06:06.394Z,2.75
2022-10-11T05:08:34.412Z,2.38
2022-10-11T05:11:11.869Z,4.03
2022-10-11T05:13:39.302Z,2.40
2022-10-11T05:16:10.943Z,3.47
2022-10-11T05:18:39.620Z,2.72
2022-10-11T05:21:17.997Z,5.43
2022-10-11T05:23:46.542Z,7.15
2022-10-11T05:26:14.503Z,6.20
2022-10-11T05:28:41.820Z,6.60
2022-10-11T05:31:09.012Z,5.18
2022-10-11T05:33:36.698Z,5.57
2022-10-11T05:36:05.036Z,7.05
2022-10-11T05:38:32.457Z,4.85
2022-10-11T05:41:01.277Z,5.53
2022-10-11T05:43:29.845Z,6.22
2022-10-11T05:45:57.088Z,5.30
2022-10-11T05:48:26.261Z,3.10
2022-10-11T05:50:58.192Z,2.92
2022-10-11T05:55:52.238Z,3.58
2022-10-11T05:58:19.853Z,1.88
2022-10-11T06:00:46.835Z,2.30
2022-10-11T06:03:14.864Z,2.58
2022-10-11T06:05:42.190Z,2.22
2022-10-11T06:08:10.808Z,1.95
2022-10-11T06:10:39.034Z,2.97
2022-10-11T06:13:07.601Z,2.17
2022-10-11T06:15:35.132Z,2.40
2022-10-11T06:18:02.338Z,2.70
2022-10-11T06:20:29.473Z,2.10
2022-10-11T06:22:56.587Z,2.97
2022-10-11T06:25:23.584Z,2.40
2022-10-11T06:27:50.753Z,2.10
2022-10-11T06:30:18.186Z,2.90
2022-10-11T06:32:45.412Z,4.03
2022-10-11T06:35:12.466Z,1.88
2022-10-11T06:37:39.480Z,2.95
2022-10-11T06:40:07.497Z,3.28
2022-10-11T06:42:34.804Z,2.30
2022-10-11T06:45:01.909Z,2.75
2022-10-11T06:47:29.094Z,2.10
2022-10-11T06:49:56.621Z,2.70
2022-10-11T06:52:23.698Z,2.53
2022-10-11T06:54:50.797Z,3.30
2022-10-11T06:57:17.932Z,2.55
2022-10-11T06:59:45.076Z,3.15
2022-10-11T07:02:12.032Z,3.40
2022-10-11T07:04:39.477Z,2.42
2022-10-11T07:07:06.546Z,3.47
2022-10-11T07:09:34.877Z,2.83
2022-10-11T07:12:02.099Z,3.20
2022-10-11T07:14:29.340Z,4.50
2022-10-11T07:16:57.444Z,3.08
2022-10-11T07:19:24.586Z,5.28
2022-10-11T07:21:51.838Z,3.13
2022-10-11T07:24:18.949Z,4.05
2022-10-11T07:26:46.361Z,4.10
2022-10-11T07:29:13.711Z,3.80
2022-10-11T07:31:43.373Z,3.92
2022-10-11T07:34:11.407Z,4.47
2022-10-11T07:36:38.732Z,3.13
2022-10-11T07:39:07.266Z,3.45
2022-10-11T07:41:35.315Z,3.33
2022-10-11T07:44:03.608Z,3.80
2022-10-11T07:46:31.303Z,3.20
2022-10-11T07:48:58.388Z,4.50
2022-10-11T07:51:25.665Z,3.53
2022-10-11T07:53:57.591Z,3.30
2022-10-11T07:59:03.639Z,2.50
2022-10-11T08:01:32.105Z,3.22
2022-10-11T08:03:59.715Z,2.92
2022-10-11T08:06:32.416Z,3.17
2022-10-11T08:09:01.053Z,3.38
2022-10-11T08:11:35.025Z,3.28
2022-10-11T08:14:06.284Z,4.22
2022-10-11T08:16:33.553Z,3.22
2022-10-11T08:19:01.461Z,4.85
2022-10-11T08:21:28.831Z,4.82
2022-10-11T08:23:56.036Z,3.58
2022-10-11T08:26:23.244Z,3.38
2022-10-11T08:28:50.468Z,3.70
2022-10-11T08:31:17.799Z,3.10
2022-10-11T08:33:44.965Z,3.75
2022-10-11T08:36:12.981Z,3.42
2022-10-11T08:38:40.971Z,4.55
2022-10-11T08:41:42.474Z,5.15
2022-10-11T08:44:14.950Z,3.50
2022-10-11T08:46:49.316Z,3.53
2022-10-11T08:49:19.946Z,2.58
2022-10-11T08:51:53.444Z,3.92
2022-10-11T08:54:31.496Z,3.38
2022-10-11T08:56:58.635Z,2.67
2022-10-11T08:59:39.462Z,4.07
2022-10-11T09:03:09.879Z,3.40
2022-10-11T09:06:23.320Z,4.65
2022-10-11T09:09:37.925Z,3.15
2022-10-11T09:12:30.889Z,4.03
2022-10-11T09:15:46.945Z,5.40
2022-10-11T09:18:44.301Z,3.97
2022-10-11T09:21:30.755Z,4.15
2022-10-11T09:24:29.531Z,2.80
2022-10-11T09:28:00.729Z,3.58
2022-10-11T09:30:21.016Z,3.05
2022-10-11T09:33:00.247Z,3.35
2022-10-11T09:35:33.812Z,3.42
2022-10-11T09:38:25.363Z,4.22
2022-10-11T09:41:16.089Z,2.92
2022-10-11T09:43:51.645Z,2.45
2022-10-11T09:46:40.935Z,1.80
2022-10-11T09:49:15.558Z,2.83
2022-10-11T09:51:53.810Z,3.00
2022-10-11T09:54:32.059Z,4.70
2022-10-11T09:56:59.285Z,2.50
2022-10-11T09:59:33.674Z,2.78
2022-10-11T10:02:22.385Z,3.67
2022-10-11T10:05:10.641Z,2.53
2022-10-11T10:07:41.074Z,3.47
2022-10-11T10:10:59.660Z,2.78
2022-10-11T10:13:44.247Z,2.70
2022-10-11T10:16:34.651Z,1.73
2022-10-11T10:19:07.867Z,2.90
2022-10-11T10:21:38.158Z,2.78
2022-10-11T10:24:38.408Z,2.72
2022-10-11T10:27:28.046Z,2.80
2022-10-11T10:30:13.362Z,3.22
2022-10-11T10:33:11.769Z,4.00
2022-10-11T10:35:46.019Z,3.10
2022-10-11T10:38:37.918Z,3.00
2022-10-11T10:41:11.142Z,2.92
2022-10-11T10:43:41.848Z,3.03
2022-10-11T10:46:11.673Z,2.10
2022-10-11T10:52:27.989Z,1.80
2022-10-11T10:55:42.107Z,2.15
2022-10-11T10:58:25.083Z,3.20
2022-10-11T11:01:23.243Z,2.67
2022-10-11T11:04:15.101Z,2.33
2022-10-11T11:07:02.625Z,2.95
2022-10-11T11:09:55.100Z,3.67
2022-10-11T11:12:56.866Z,2.53
2022-10-11T11:15:36.973Z,3.67
2022-10-11T11:18:28.628Z,3.50
2022-10-11T11:21:23.856Z,2.83
2022-10-11T11:24:40.597Z,2.25
2022-10-11T11:27:52.595Z,3.55
2022-10-11T11:30:24.813Z,3.22
2022-10-11T11:33:07.958Z,2.78
2022-10-11T11:35:53.173Z,2.80
2022-10-11T11:38:29.428Z,3.53
2022-10-11T11:41:02.878Z,3.63
2022-10-11T11:43:45.779Z,3.10
2022-10-11T11:46:19.603Z,2.78
2022-10-11T11:48:49.398Z,3.47
2022-10-11T11:51:22.086Z,3.90
2022-10-11T11:54:37.677Z,4.15
2022-10-11T11:57:43.980Z,3.60
2022-10-11T12:00:24.291Z,7.45
2022-10-11T12:03:24.102Z,4.82
2022-10-11T12:06:34.038Z,3.70
2022-10-11T12:09:21.658Z,4.25
2022-10-11T12:12:00.039Z,3.45
2022-10-11T12:14:41.124Z,3.20
2022-10-11T12:17:18.505Z,3.78
2022-10-11T12:20:09.251Z,4.10
2022-10-11T12:22:51.984Z,3.28
2022-10-11T12:25:22.047Z,4.78
2022-10-11T12:27:55.867Z,3.15
2022-10-11T12:30:46.999Z,3.10
2022-10-11T12:33:46.113Z,4.05
2022-10-11T12:36:39.174Z,4.63
2022-10-11T12:40:01.918Z,3.30
2022-10-11T12:45:14.273Z,3.45
2022-10-11T12:50:48.363Z,3.33
2022-10-11T12:53:24.113Z,2.42
2022-10-11T12:56:12.463Z,3.75
2022-10-11T12:58:45.102Z,3.30
2022-10-11T13:01:22.501Z,3.55
2022-10-11T13:04:05.586Z,3.97
2022-10-11T13:06:48.346Z,3.80
2022-10-11T13:09:28.668Z,4.25
2022-10-11T13:12:12.038Z,5.03
2022-10-11T13:14:45.323Z,3.22
2022-10-11T13:17:38.049Z,4.68
2022-10-11T13:20:19.796Z,4.25
2022-10-11T13:22:51.783Z,3.23
2022-10-11T13:25:27.002Z,4.53
2022-10-11T13:27:57.276Z,3.17
2022-10-11T13:30:32.683Z,4.70
2022-10-11T13:33:01.309Z,3.35
2022-10-11T13:35:36.383Z,3.88
2022-10-11T13:38:05.402Z,5.05
2022-10-11T13:40:32.611Z,2.85
2022-10-11T13:43:00.810Z,3.25
2022-10-11T13:45:30.790Z,4.70
2022-10-11T13:47:58.237Z,4.78
2022-10-11T13:50:35.466Z,3.38
2022-10-11T13:53:24.488Z,6.25
2022-10-11T13:55:58.824Z,3.40
2022-10-11T13:58:45.617Z,5.72
2022-10-11T14:01:22.643Z,3.75
2022-10-11T14:04:03.414Z,4.15
2022-10-11T14:06:52.883Z,4.95
2022-10-11T14:09:34.384Z,5.97
2022-10-11T14:12:43.346Z,4.43
2022-10-11T14:15:36.265Z,3.60
2022-10-11T14:18:47.753Z,5.43
2022-10-11T14:21:20.729Z,4.95
2022-10-11T14:23:59.429Z,4.28
2022-10-11T14:26:32.105Z,3.80
2022-10-11T14:29:05.322Z,3.80
2022-10-11T14:31:32.624Z,5.05
2022-10-11T14:33:59.896Z,3.80
2022-10-11T14:36:27.087Z,4.13
2022-10-11T14:38:54.346Z,4.00
2022-10-11T14:41:21.485Z,3.72
2022-10-11T14:43:48.674Z,4.25
2022-10-11T14:46:24.605Z,4.40
2022-10-11T14:48:55.960Z,5.07
2022-10-11T14:51:30.044Z,3.88
2022-10-11T14:53:58.364Z,5.03
2022-10-11T14:56:25.502Z,5.82
2022-10-11T14:58:52.646Z,4.05
2022-10-11T15:01:19.778Z,4.05
2022-10-11T15:03:47.039Z,5.60
2022-10-11T15:06:23.068Z,5.05
2022-10-11T15:08:50.613Z,3.75
2022-10-11T15:11:20.329Z,4.63
2022-10-11T15:13:48.141Z,3.85
2022-10-11T15:16:19.677Z,5.45
2022-10-11T15:19:13.465Z,4.45
2022-10-11T15:21:40.643Z,3.72
2022-10-11T15:24:07.943Z,5.57
2022-10-11T15:26:35.253Z,3.40
2022-10-11T15:29:02.843Z,4.85
2022-10-11T15:31:30.242Z,4.20
2022-10-11T15:34:02.726Z,4.80
2022-10-11T15:36:29.923Z,5.38
2022-10-11T15:38:57.521Z,5.00
2022-10-11T15:41:24.845Z,5.72
2022-10-11T15:43:52.308Z,5.13
2022-10-11T15:46:23.248Z,5.47
2022-10-11T15:48:52.165Z,4.03
2022-10-11T15:51:19.661Z,4.07
2022-10-11T15:53:46.902Z,4.93
2022-10-11T15:56:17.336Z,3.85
2022-10-11T15:58:44.661Z,4.13
2022-10-11T16:01:20.370Z,4.85
2022-10-11T16:03:49.894Z,4.95
2022-10-11T16:06:19.443Z,5.50
2022-10-11T16:08:48.020Z,7.68
2022-10-11T16:11:15.283Z,5.28
2022-10-11T16:13:42.440Z,5.15
2022-10-11T16:16:10.926Z,4.85
2022-10-11T16:18:38.947Z,5.45
2022-10-11T16:21:10.335Z,5.30
2022-10-11T16:23:38.830Z,5.35
2022-10-11T16:26:09.881Z,6.22
2022-10-11T16:28:38.021Z,5.90
2022-10-11T16:31:10.998Z,7.45
2022-10-11T16:33:45.955Z,6.40
2022-10-11T16:36:32.552Z,7.95
2022-10-11T16:39:01.328Z,7.35
2022-10-11T16:41:28.398Z,5.95
2022-10-11T16:43:56.403Z,5.90
2022-10-11T16:46:24.225Z,5.10
2022-10-11T16:48:54.805Z,6.28
2022-10-11T16:51:24.123Z,6.82
2022-10-11T16:53:52.678Z,5.90
2022-10-11T16:56:22.529Z,5.45
2022-10-11T16:58:49.893Z,6.93
2022-10-11T17:01:17.023Z,5.25
2022-10-11T17:03:44.232Z,6.35
2022-10-11T17:06:11.322Z,5.80
2022-10-11T17:08:38.613Z,5.50
2022-10-11T17:11:06.331Z,5.65
2022-10-11T17:13:33.456Z,5.45
2022-10-11T17:16:00.858Z,6.10
2022-10-11T17:18:28.193Z,6.28
2022-10-11T17:21:08.204Z,5.72
2022-10-11T17:23:36.381Z,6.85
2022-10-11T17:26:11.203Z,9.40
2022-10-11T17:28:39.177Z,7.45
2022-10-11T17:31:08.173Z,6.22
2022-10-11T17:33:35.894Z,8.38
2022-10-11T17:36:13.920Z,9.85
2022-10-11T17:38:41.125Z,8.52
2022-10-11T17:41:09.218Z,6.60
2022-10-11T17:43:36.524Z,7.72
2022-10-11T17:46:06.122Z,7.63
2022-10-11T17:48:36.790Z,7.55
2022-10-11T17:51:13.114Z,7.47
2022-10-11T17:53:40.737Z,8.25
2022-10-11T17:56:11.313Z,10.55
2022-10-11T17:58:39.104Z,9.25
2022-10-11T18:01:10.356Z,10.70
2022-10-11T18:03:38.091Z,7.57
2022-10-11T18:06:13.637Z,7.85
2022-10-11T18:08:42.031Z,10.02
2022-10-11T18:11:18.113Z,7.95
2022-10-11T18:13:49.360Z,9.13
2022-10-11T18:16:19.732Z,10.05
2022-10-11T18:18:47.758Z,9.65
2022-10-11T18:21:16.226Z,11.88
2022-10-11T18:23:43.241Z,13.20
2022-10-11T18:26:15.567Z,9.82
2022-10-11T18:28:44.140Z,8.45
2022-10-11T18:31:17.762Z,8.52
2022-10-11T18:33:46.398Z,9.10
2022-10-11T18:36:21.517Z,7.43
2022-10-11T18:38:53.905Z,8.63
2022-10-11T18:41:23.372Z,9.50
2022-10-11T18:43:56.540Z,7.60
2022-10-11T18:46:24.887Z,7.85
2022-10-11T18:48:55.306Z,7.13
2022-10-11T18:51:26.303Z,8.43
2022-10-11T18:53:54.908Z,7.27
2022-10-11T18:56:26.088Z,7.57
2022-10-11T18:58:55.985Z,7.40
2022-10-11T19:01:28.171Z,7.80
2022-10-11T19:03:57.745Z,7.80
2022-10-11T19:06:31.783Z,7.97
2022-10-11T19:09:09.188Z,7.15
2022-10-11T19:11:36.484Z,5.97
2022-10-11T19:14:11.158Z,7.22
2022-10-11T19:16:42.209Z,8.98
2022-10-11T19:19:12.174Z,8.47
2022-10-11T19:21:39.872Z,8.32
2022-10-11T19:24:07.577Z,10.70
2022-10-11T19:26:38.699Z,10.55
2022-10-11T19:29:10.388Z,11.10
2022-10-11T19:31:48.268Z,12.18
2022-10-11T19:34:16.001Z,12.52
2022-10-11T19:36:43.825Z,8.73
2022-10-11T19:39:14.307Z,9.95
2022-10-11T19:41:42.778Z,8.63
2022-10-11T19:44:10.699Z,7.78
2022-10-11T19:46:50.834Z,9.82
2022-10-11T19:49:22.512Z,9.27
2022-10-11T19:51:49.835Z,10.23
2022-10-11T19:54:17.822Z,8.88
2022-10-11T19:56:45.243Z,8.15
2022-10-11T19:59:13.320Z,9.82
2022-10-11T20:01:41.530Z,8.05
2022-10-11T20:04:22.938Z,7.05
2022-10-11T20:06:59.141Z,9.20
2022-10-11T20:09:30.565Z,9.50
2022-10-11T20:14:26.200Z,5.15
2022-10-11T20:16:53.597Z,5.55
2022-10-11T20:19:25.017Z,5.53
2022-10-11T20:21:55.153Z,6.93
2022-10-11T20:24:22.537Z,7.15
2022-10-11T20:26:49.589Z,7.63
2022-10-11T20:29:16.994Z,6.88
2022-10-11T20:31:44.213Z,7.10
2022-10-11T20:34:11.513Z,9.50
2022-10-11T20:36:38.929Z,8.40
2022-10-11T20:39:06.815Z,8.48
2022-10-11T20:41:39.887Z,8.68
2022-10-11T20:44:08.078Z,8.52
2022-10-11T20:46:39.535Z,8.23
2022-10-11T20:49:10.461Z,8.23
2022-10-11T20:51:39.866Z,8.07
2022-10-11T20:54:07.234Z,7.60
2022-10-11T20:56:35.180Z,7.80
2022-10-11T20:59:02.846Z,7.70
2022-10-11T21:01:41.502Z,10.90
2022-10-11T21:04:17.481Z,10.88
2022-10-11T21:06:44.600Z,10.30
2022-10-11T21:09:15.478Z,8.50
2022-10-11T21:11:43.931Z,8.52
2022-10-11T21:14:11.650Z,8.05
2022-10-11T21:16:38.899Z,8.57
2022-10-11T21:19:06.406Z,8.88
2022-10-11T21:21:33.470Z,7.22
2022-10-11T21:24:02.597Z,8.57
2022-10-11T21:26:31.038Z,7.00
2022-10-11T21:29:01.226Z,8.88
2022-10-11T21:31:33.538Z,7.20
2022-10-11T21:34:01.790Z,6.85
2022-10-11T21:36:28.999Z,7.97
2022-10-11T21:38:56.826Z,7.05
2022-10-11T21:41:30.171Z,7.65
2022-10-11T21:43:58.403Z,7.40
2022-10-11T21:49:19.942Z,7.35
2022-10-11T21:51:47.160Z,7.18
2022-10-11T21:54:14.638Z,7.47
2022-10-11T21:56:42.296Z,8.05
2022-10-11T21:59:12.384Z,7.13
2022-10-11T22:01:40.776Z,7.78
2022-10-11T22:04:08.555Z,7.75
2022-10-11T22:06:37.222Z,9.00
2022-10-11T22:09:05.773Z,8.63
2022-10-11T22:11:32.790Z,8.15
2022-10-11T22:14:00.111Z,6.82
2022-10-11T22:16:27.140Z,7.65
2022-10-11T22:18:54.601Z,6.90
2022-10-11T22:21:23.798Z,7.25
2022-10-11T22:23:53.442Z,7.53
2022-10-11T22:26:27.118Z,6.47
2022-10-11T22:28:54.531Z,7.65
2022-10-11T22:31:22.978Z,5.85
2022-10-11T22:33:55.427Z,6.05
2022-10-11T22:36:24.378Z,7.03
2022-10-11T22:38:52.418Z,7.30
2022-10-11T22:41:19.565Z,6.68
2022-10-11T22:43:46.815Z,5.95
2022-10-11T22:46:13.862Z,6.35
2022-10-11T22:48:41.209Z,8.95
2022-10-11T22:51:08.447Z,7.07
2022-10-11T22:53:35.898Z,6.43
2022-10-11T22:56:03.039Z,6.40
2022-10-11T22:58:30.319Z,6.78
2022-10-11T23:00:57.519Z,8.88
2022-10-11T23:03:24.930Z,7.63
2022-10-11T23:05:58.586Z,8.23
2022-10-11T23:08:26.122Z,5.70
2022-10-11T23:10:53.594Z,5.22
2022-10-11T23:13:21.232Z,5.95
2022-10-11T23:15:48.459Z,5.97
2022-10-11T23:18:17.206Z,5.78
2022-10-11T23:20:44.662Z,6.72
2022-10-11T23:23:11.888Z,7.43
2022-10-11T23:25:39.460Z,6.63
2022-10-11T23:28:06.671Z,5.45
2022-10-11T23:30:33.850Z,7.95
2022-10-11T23:33:01.035Z,5.25
2022-10-11T23:35:28.100Z,5.95
2022-10-11T23:37:55.297Z,5.35
2022-10-11T23:40:22.402Z,4.88
2022-10-11T23:42:49.585Z,5.97
2022-10-11T23:45:17.259Z,8.38
2022-10-11T23:47:44.422Z,5.85
2022-10-11T23:50:11.607Z,6.00
2022-10-11T23:52:38.780Z,6.28
2022-10-11T23:55:06.374Z,5.05
2022-10-11T23:57:33.824Z,5.30
